Time;durP1;ratioP1;P1;durP2;ratioP2;P2;SDS_P1;SDS_P2;PMS_P1;PMS_P2;Temp;Humidity;BMP_temperature;BMP_pressure;BME280_temperature;BME280_humidity;BME280_pressure;Samples;Min_cycle;Max_cycle;Signal;HPM_P1;HPM_P2
2023/05/31 00:01:40;;;;;;;5.53;2.23;;;;;;;13.10;60.42;101983.88;4901432;29;20421;-71
2023/05/31 00:04:09;;;;;;;5.50;2.43;;;;;;;12.88;60.78;101990.28;4900655;29;20517;-70
2023/05/31 00:06:38;;;;;;;3.40;2.50;;;;;;;12.87;60.95;101988.63;4899595;29;20565;-70
2023/05/31 00:09:08;;;;;;;3.57;1.70;;;;;;;12.66;61.41;101994.84;4898968;29;20802;-69
2023/05/31 00:11:38;;;;;;;3.73;2.30;;;;;;;12.67;61.32;101987.53;4905808;29;20471;-71
2023/05/31 00:14:08;;;;;;;2.50;1.73;;;;;;;12.60;61.77;101988.28;4900163;29;20435;-70
2023/05/31 00:16:37;;;;;;;2.83;1.90;;;;;;;12.85;61.14;101991.53;4901661;29;21079;-71
2023/05/31 00:19:09;;;;;;;5.23;3.03;;;;;;;12.62;61.62;101993.53;4903710;29;20438;-71
2023/05/31 00:21:39;;;;;;;5.20;3.30;;;;;;;12.79;61.40;101992.28;4904343;29;20441;-70
2023/05/31 00:24:09;;;;;;;6.27;3.37;;;;;;;13.02;61.21;101986.72;4902537;29;20474;-69
2023/05/31 00:26:38;;;;;;;5.73;2.73;;;;;;;12.60;61.56;101982.88;4900011;29;20521;-70
2023/05/31 00:29:07;;;;;;;6.10;3.90;;;;;;;12.46;62.36;101978.28;4909204;29;20489;-69
2023/05/31 00:31:36;;;;;;;4.87;2.30;;;;;;;12.50;61.93;101978.75;4900383;29;20497;-70
2023/05/31 00:34:05;;;;;;;4.57;3.43;;;;;;;12.53;62.47;101981.94;4899299;29;20839;-71
2023/05/31 00:36:35;;;;;;;4.43;2.90;;;;;;;13.07;62.31;101976.09;4898935;29;20976;-69
2023/05/31 00:39:04;;;;;;;6.20;2.77;;;;;;;12.84;61.10;101987.13;4899378;29;20990;-72
2023/05/31 00:41:35;;;;;;;4.33;3.13;;;;;;;12.91;61.86;101984.50;4899254;29;20438;-70
2023/05/31 00:44:04;;;;;;;5.67;2.53;;;;;;;12.99;61.05;101978.94;4898378;29;20462;-70
2023/05/31 00:46:35;;;;;;;2.90;2.40;;;;;;;13.13;60.77;101983.53;4899402;29;20444;-69
2023/05/31 00:49:05;;;;;;;6.30;3.10;;;;;;;13.37;59.98;101990.47;4899947;29;20537;-69
2023/05/31 00:51:36;;;;;;;4.03;1.97;;;;;;;13.37;59.59;101983.16;4897203;29;20510;-69
2023/05/31 00:54:06;;;;;;;3.07;2.13;;;;;;;13.15;60.42;101991.50;4899648;29;20443;-70
2023/05/31 00:56:37;;;;;;;5.10;2.47;;;;;;;13.08;60.82;101991.38;4894708;29;20462;-70
2023/05/31 00:59:06;;;;;;;5.00;2.80;;;;;;;13.04;61.18;101990.09;4899503;29;20435;-70
2023/05/31 01:01:35;;;;;;;5.27;3.10;;;;;;;13.26;60.54;101989.13;4899498;29;20479;-70
2023/05/31 01:04:04;;;;;;;3.53;2.43;;;;;;;12.70;61.49;101989.88;4903009;29;20787;-69
2023/05/31 01:06:34;;;;;;;4.77;3.13;;;;;;;12.53;62.59;101998.25;4901814;29;20551;-71
2023/05/31 01:09:05;;;;;;;3.33;2.23;;;;;;;12.28;62.93;101988.69;4903168;29;20445;-70
2023/05/31 01:11:58;;;;;;;3.60;2.20;;;;;;;11.95;64.08;101988.19;4901814;29;20505;-70
2023/05/31 01:14:37;;;;;;;4.17;1.90;;;;;;;11.91;64.43;101980.63;4898085;29;20446;-69
2023/05/31 01:17:14;;;;;;;2.70;1.70;;;;;;;11.72;65.20;101992.78;4898434;29;20430;-69
2023/05/31 01:19:49;;;;;;;2.43;2.10;;;;;;;11.67;65.96;101990.59;4902666;29;20436;-70
2023/05/31 01:22:32;;;;;;;7.63;2.77;;;;;;;11.45;66.40;101991.47;4897074;29;20453;-69
2023/05/31 01:25:23;;;;;;;2.47;1.97;;;;;;;12.20;65.40;101995.03;4899208;29;20977;-70
2023/05/31 01:27:57;;;;;;;3.67;2.30;;;;;;;11.93;64.69;101997.53;4878447;29;20885;-69
2023/05/31 01:30:38;;;;;;;4.10;2.53;;;;;;;11.76;66.16;101994.16;4904841;29;20686;-70
2023/05/31 01:33:11;;;;;;;4.00;2.20;;;;;;;11.79;65.28;101992.91;4896493;29;20434;-70
2023/05/31 01:35:40;;;;;;;6.77;3.00;;;;;;;11.53;66.38;101998.69;4896917;29;20494;-71
2023/05/31 01:38:09;;;;;;;2.87;2.10;;;;;;;11.35;67.32;101996.31;4898592;29;20441;-71
2023/05/31 01:40:40;;;;;;;3.80;1.80;;;;;;;11.34;67.33;102000.88;4897456;29;20504;-71
2023/05/31 01:43:12;;;;;;;2.57;1.83;;;;;;;11.66;66.58;101997.09;4901129;29;20426;-70
2023/05/31 01:45:41;;;;;;;4.90;2.13;;;;;;;11.81;66.06;101999.88;4897709;29;20445;-71
2023/05/31 01:48:12;;;;;;;7.90;2.60;;;;;;;12.13;65.27;101990.56;4895867;29;20479;-70
2023/05/31 01:50:41;;;;;;;3.30;2.23;;;;;;;12.16;65.35;101990.16;4896960;29;20529;-71
2023/05/31 01:53:11;;;;;;;5.00;2.40;;;;;;;12.11;65.48;101998.03;4900241;29;20442;-71
2023/05/31 01:55:43;;;;;;;4.40;2.43;;;;;;;11.96;64.95;101995.28;4896663;29;20469;-71
2023/05/31 01:58:14;;;;;;;4.60;2.53;;;;;;;12.26;63.90;102001.59;4898581;29;20537;-71
2023/05/31 02:00:44;;;;;;;4.63;2.87;;;;;;;11.74;65.32;101999.75;4901083;29;20541;-70
2023/05/31 02:03:16;;;;;;;3.33;2.37;;;;;;;11.88;66.06;101997.25;4909721;29;20450;-72
2023/05/31 02:05:59;;;;;;;3.97;2.27;;;;;;;11.43;66.56;101996.22;4911550;29;20476;-71
2023/05/31 02:08:28;;;;;;;3.73;2.57;;;;;;;11.37;67.42;101999.69;4900902;29;20929;-70
2023/05/31 02:10:58;;;;;;;4.03;2.00;;;;;;;11.25;67.71;101992.97;4907111;29;20445;-70
2023/05/31 02:13:31;;;;;;;5.63;3.30;;;;;;;10.99;68.77;101996.00;4897135;29;20438;-70
2023/05/31 02:16:00;;;;;;;3.27;2.37;;;;;;;11.07;68.77;101997.84;4896151;29;20809;-70
2023/05/31 02:18:30;;;;;;;9.83;3.40;;;;;;;10.96;69.21;102000.94;4893931;29;20439;-71
2023/05/31 02:20:59;;;;;;;10.53;2.33;;;;;;;10.85;69.49;102005.75;4896416;29;20450;-69
2023/05/31 02:23:29;;;;;;;5.53;2.87;;;;;;;11.34;67.46;101992.75;4897742;29;20476;-71
2023/05/31 02:25:58;;;;;;;3.00;2.50;;;;;;;11.64;66.84;101999.13;4896305;29;20824;-69
2023/05/31 02:28:28;;;;;;;4.03;2.73;;;;;;;11.51;66.40;101989.91;4897546;29;20489;-71
2023/05/31 02:30:59;;;;;;;3.73;2.43;;;;;;;11.19;67.88;101993.69;4897499;29;20452;-72
2023/05/31 02:33:29;;;;;;;6.25;2.30;;;;;;;11.24;68.22;101996.72;4900997;29;20485;-71
2023/05/31 02:35:58;;;;;;;5.57;2.40;;;;;;;10.77;68.95;102003.09;4895227;29;20225;-70
2023/05/31 02:38:28;;;;;;;3.07;2.63;;;;;;;10.69;69.36;101999.56;4897241;29;20442;-70
2023/05/31 02:40:57;;;;;;;5.15;2.47;;;;;;;10.52;69.98;101987.97;4896305;29;20446;-72
2023/05/31 02:43:26;;;;;;;4.83;2.83;;;;;;;11.06;69.46;101994.28;4895750;29;20246;-70
2023/05/31 02:45:56;;;;;;;6.40;3.57;;;;;;;10.96;69.52;101984.69;4911079;29;20458;-70
2023/05/31 02:48:26;;;;;;;3.37;2.27;;;;;;;11.41;67.68;101984.75;4900994;29;20504;-71
2023/05/31 02:50:55;;;;;;;4.40;2.47;;;;;;;11.37;66.43;101988.84;4910906;29;20456;-72
2023/05/31 02:53:34;;;;;;;6.77;3.10;;;;;;;10.82;68.10;101989.88;4896292;29;20463;-69
2023/05/31 02:56:26;;;;;;;3.15;2.15;;;;;;;11.01;67.89;101987.72;4899531;29;20519;-70
2023/05/31 02:59:16;;;;;;;3.40;2.20;;;;;;;10.74;68.87;101989.91;4897185;29;20251;-71
2023/05/31 03:01:56;;;;;;;4.13;2.70;;;;;;;10.63;69.16;101990.28;4896951;29;20463;-72
2023/05/31 03:04:54;;;;;;;6.05;2.88;;;;;;;11.39;67.30;101986.78;4915268;29;20531;-71
2023/05/31 03:07:24;;;;;;;6.43;2.05;;;;;;;10.93;67.85;101983.22;4899411;29;20217;-72
2023/05/31 03:09:53;;;;;;;6.80;2.35;;;;;;;11.56;66.80;101982.94;4902476;29;20268;-71
2023/05/31 03:12:23;;;;;;;3.70;2.08;;;;;;;11.19;67.53;101985.56;4896973;29;20210;-70
2023/05/31 03:14:53;;;;;;;4.65;2.42;;;;;;;11.38;67.05;101986.94;4902133;29;20613;-71
2023/05/31 03:17:23;;;;;;;5.93;2.20;;;;;;;12.31;65.62;101992.88;4906494;29;20186;-71
2023/05/31 03:19:53;;;;;;;6.30;3.27;;;;;;;12.03;63.50;101995.41;4908198;29;20831;-71
2023/05/31 03:22:23;;;;;;;2.57;2.10;;;;;;;11.76;64.93;101994.16;4906327;29;20460;-70
2023/05/31 03:24:53;;;;;;;4.90;2.77;;;;;;;11.13;66.80;101991.72;4902219;29;21003;-71
2023/05/31 03:27:22;;;;;;;4.53;2.57;;;;;;;10.86;67.92;101984.94;4895813;29;20907;-71
2023/05/31 03:29:53;;;;;;;5.63;2.90;;;;;;;10.86;67.96;101991.19;4900331;29;20805;-71
2023/05/31 03:32:23;;;;;;;4.70;3.83;;;;;;;11.07;68.52;101987.00;4900706;29;20512;-70
2023/05/31 03:34:53;;;;;;;5.80;2.60;;;;;;;12.19;64.10;101985.22;4901279;29;20469;-69
2023/05/31 03:37:22;;;;;;;3.27;2.63;;;;;;;12.47;62.52;101990.84;4902179;29;20864;-72
2023/05/31 03:40:08;;;;;;;3.70;2.03;;;;;;;13.94;58.41;101987.63;4899192;29;20505;-71
2023/05/31 03:42:38;;;;;;;4.70;2.40;;;;;;;14.98;54.47;101991.16;4896576;29;20481;-71
2023/05/31 03:45:09;;;;;;;4.97;2.27;;;;;;;15.99;51.18;101990.91;4897531;29;20503;-71
2023/05/31 03:47:40;;;;;;;3.57;2.13;;;;;;;16.40;50.19;101987.91;4904260;29;20469;-70
2023/05/31 03:50:10;;;;;;;6.07;3.27;;;;;;;16.72;48.51;101985.28;4909533;29;20458;-70
2023/05/31 03:52:40;;;;;;;5.63;2.87;;;;;;;17.16;47.76;101987.19;4898771;29;20480;-68
2023/05/31 03:55:10;;;;;;;3.93;2.60;;;;;;;17.44;46.91;101979.41;4893326;29;20490;-70
2023/05/31 03:57:40;;;;;;;4.77;2.30;;;;;;;17.45;45.83;101978.38;4898619;29;20445;-71
2023/05/31 04:00:12;;;;;;;3.40;2.00;;;;;;;17.41;46.15;101976.28;4898486;29;20475;-70
2023/05/31 04:02:43;;;;;;;8.00;2.90;;;;;;;17.98;45.29;101977.97;4901996;29;20422;-70
2023/05/31 04:05:24;;;;;;;3.93;2.00;;;;;;;18.50;44.09;101977.41;4895282;29;20454;-72
2023/05/31 04:07:53;;;;;;;2.70;1.87;;;;;;;18.57;43.35;101975.47;4898575;29;20458;-71
2023/05/31 04:10:22;;;;;;;4.43;2.10;;;;;;;17.95;44.53;101979.25;4914875;29;20862;-70
2023/05/31 04:12:51;;;;;;;4.43;3.20;;;;;;;18.80;43.23;101979.41;4899746;29;20475;-70
2023/05/31 04:15:21;;;;;;;4.90;3.20;;;;;;;19.70;41.49;101980.25;4898534;29;20838;-70
2023/05/31 04:17:54;;;;;;;3.77;2.43;;;;;;;20.19;40.42;101973.44;4898742;29;20940;-72
2023/05/31 04:20:23;;;;;;;6.13;2.70;;;;;;;19.80;40.84;101972.25;4895863;29;21042;-72
2023/05/31 04:22:53;;;;;;;3.83;2.37;;;;;;;19.33;41.84;101983.09;4894161;29;20792;-71
2023/05/31 04:25:24;;;;;;;5.13;3.00;;;;;;;19.78;40.85;101977.13;4888353;29;20522;-71
2023/05/31 04:27:56;;;;;;;9.60;2.90;;;;;;;19.93;40.27;101974.78;4898833;29;20848;-70
2023/05/31 04:30:26;;;;;;;3.13;2.30;;;;;;;19.63;40.66;101980.34;4899648;29;20937;-71
2023/05/31 04:32:57;;;;;;;3.70;2.20;;;;;;;19.61;41.37;101987.97;4899890;29;20498;-69
2023/05/31 04:35:28;;;;;;;4.37;2.90;;;;;;;20.01;40.24;101988.13;4900036;29;20893;-70
2023/05/31 04:38:02;;;;;;;6.30;3.07;;;;;;;20.43;39.45;101988.06;4908744;29;20456;-70
2023/05/31 04:40:32;;;;;;;7.47;3.47;;;;;;;20.19;40.05;101985.25;4900089;29;20504;-69
2023/05/31 04:43:03;;;;;;;5.20;2.70;;;;;;;19.90;40.36;101989.81;4895124;29;20446;-71
2023/05/31 04:45:34;;;;;;;4.40;2.30;;;;;;;21.05;38.37;101978.91;4897012;29;20449;-71
2023/05/31 04:48:05;;;;;;;4.53;3.07;;;;;;;20.79;38.44;101990.47;4901336;29;20456;-70
2023/05/31 04:50:35;;;;;;;5.60;2.50;;;;;;;20.91;38.64;101983.03;4898570;29;20444;-71
2023/05/31 04:53:04;;;;;;;3.80;2.80;;;;;;;21.23;37.87;101984.25;4895443;29;20416;-70
2023/05/31 04:55:33;;;;;;;5.83;2.47;;;;;;;21.69;36.91;101982.28;4895015;29;20504;-71
2023/05/31 04:58:07;;;;;;;4.97;2.97;;;;;;;21.60;37.49;101986.53;4899878;29;20419;-72
2023/05/31 05:00:37;;;;;;;5.97;3.03;;;;;;;21.33;38.04;101986.34;4898091;29;20521;-70
2023/05/31 05:03:18;;;;;;;4.80;3.27;;;;;;;22.08;36.64;101984.06;4906795;28;20828;-71
2023/05/31 05:05:49;;;;;;;5.70;2.57;;;;;;;22.44;35.84;101982.66;4919744;29;21000;-71
2023/05/31 05:08:18;;;;;;;4.87;2.80;;;;;;;22.30;36.19;101986.88;4917436;29;20822;-69
2023/05/31 05:10:48;;;;;;;4.17;3.10;;;;;;;22.61;35.68;101987.31;4912227;29;20435;-70
2023/05/31 05:13:19;;;;;;;4.80;2.60;;;;;;;21.96;36.81;101991.59;4918438;29;20962;-71
2023/05/31 05:15:49;;;;;;;5.73;2.70;;;;;;;22.10;36.38;101987.41;4916195;29;20443;-71
2023/05/31 05:18:20;;;;;;;5.20;3.10;;;;;;;22.46;35.43;101985.97;4918189;29;20407;-70
2023/05/31 05:20:49;;;;;;;3.77;2.90;;;;;;;22.65;35.31;101982.94;4916291;29;20471;-69
2023/05/31 05:23:25;;;;;;;4.63;3.30;;;;;;;22.82;35.38;101975.44;4915642;29;20844;-70
2023/05/31 05:25:55;;;;;;;6.73;3.30;;;;;;;22.37;36.10;101975.66;4918215;29;20452;-71
2023/05/31 05:28:26;;;;;;;5.83;2.93;;;;;;;22.50;35.49;101989.09;4905377;29;20448;-70
2023/05/31 05:30:55;;;;;;;4.67;3.27;;;;;;;20.92;38.41;101983.84;4915123;29;20446;-69
2023/05/31 05:33:29;;;;;;;5.70;2.27;;;;;;;18.66;42.54;101979.56;4913853;29;20433;-69
2023/05/31 05:35:58;;;;;;;6.47;3.13;;;;;;;17.05;46.78;101982.41;4915189;29;20539;-69
2023/05/31 05:38:28;;;;;;;8.90;2.87;;;;;;;16.09;49.04;101972.19;4918647;29;20414;-70
2023/05/31 05:40:57;;;;;;;6.20;2.80;;;;;;;15.52;50.64;101977.47;4920732;29;20420;-69
2023/05/31 05:43:28;;;;;;;5.43;3.80;;;;;;;15.32;52.62;101982.00;4923779;29;20916;-70
2023/05/31 05:46:06;;;;;;;10.97;3.57;;;;;;;15.40;52.84;101973.63;4917045;29;20473;-70
2023/05/31 05:48:37;;;;;;;5.30;3.20;;;;;;;15.40;52.54;101976.34;4916202;29;21002;-70
2023/05/31 05:51:06;;;;;;;9.37;3.10;;;;;;;15.47;52.68;101975.34;4913405;29;20445;-70
2023/05/31 05:53:35;;;;;;;6.70;3.07;;;;;;;15.50;52.80;101979.50;4911520;29;20447;-71
2023/05/31 05:56:05;;;;;;;7.27;4.60;;;;;;;15.54;53.08;101978.91;4915989;29;20989;-70
2023/05/31 05:58:44;;;;;;;6.13;3.00;;;;;;;15.81;52.93;101977.06;4919541;29;20446;-69
2023/05/31 06:01:32;;;;;;;9.03;3.30;;;;;;;15.74;52.10;101983.53;4912164;29;20912;-70
2023/05/31 06:04:06;;;;;;;7.47;2.70;;;;;;;15.71;51.74;101976.63;4924306;29;20792;-70
2023/05/31 06:06:36;;;;;;;3.50;2.93;;;;;;;15.70;51.80;101969.50;4915478;29;20457;-70
2023/05/31 06:09:05;;;;;;;5.70;2.90;;;;;;;15.77;52.16;101975.81;4915106;29;20553;-70
2023/05/31 06:11:34;;;;;;;3.90;2.60;;;;;;;15.83;51.86;101980.41;4915053;29;20465;-69
2023/05/31 06:14:04;;;;;;;5.60;3.20;;;;;;;15.97;51.84;101976.63;4914859;29;20442;-70
2023/05/31 06:16:39;;;;;;;3.90;3.20;;;;;;;15.92;51.37;101979.16;4921234;29;20480;-70
2023/05/31 06:19:10;;;;;;;3.93;2.50;;;;;;;15.93;51.57;101975.34;4917118;29;20450;-70
2023/05/31 06:21:40;;;;;;;4.70;2.20;;;;;;;16.18;51.37;101971.97;4918120;29;20442;-69
2023/05/31 06:24:09;;;;;;;4.63;2.03;;;;;;;16.18;51.04;101978.25;4916922;29;20942;-70
2023/05/31 06:26:39;;;;;;;5.40;2.90;;;;;;;16.37;50.42;101982.00;4920451;29;20479;-69
2023/05/31 06:29:09;;;;;;;4.47;2.60;;;;;;;16.47;50.34;101976.94;4918257;29;20517;-69
2023/05/31 06:32:48;;;;;;;11.50;2.90;;;;;;;16.39;50.28;101979.91;4920468;29;20428;-69
2023/05/31 06:35:26;;;;;;;6.10;2.57;;;;;;;16.70;49.85;101979.22;4912497;29;20515;-70
2023/05/31 06:37:55;;;;;;;11.30;4.57;;;;;;;16.92;49.82;101969.66;4915986;29;20549;-69
2023/05/31 06:40:24;;;;;;;7.00;3.70;;;;;;;17.05;49.42;101974.19;4910052;29;20763;-70
2023/05/31 06:42:54;;;;;;;3.10;2.10;;;;;;;17.16;48.77;101970.75;4925095;29;20421;-69
2023/05/31 06:45:42;;;;;;;8.87;3.53;;;;;;;17.25;48.77;101975.75;4920226;29;20577;-70
2023/05/31 06:48:47;;;;;;;6.73;2.93;;;;;;;17.41;48.71;101971.66;4923745;29;20980;-70
2023/05/31 06:51:47;;;;;;;9.57;3.37;;;;;;;17.49;49.11;101960.44;4950071;28;20720;-70
2023/05/31 06:54:45;;;;;;;6.83;3.03;;;;;;;17.72;48.70;101974.38;4912743;29;20447;-71
2023/05/31 06:57:15;;;;;;;5.27;3.17;;;;;;;17.94;48.78;101976.75;4924272;29;20846;-71
2023/05/31 06:59:45;;;;;;;4.30;2.60;;;;;;;18.11;47.81;101966.88;4918353;29;20960;-69
2023/05/31 07:02:14;;;;;;;4.37;2.00;;;;;;;18.04;47.49;101968.84;4919309;29;20434;-70
2023/05/31 07:04:43;;;;;;;6.67;2.60;;;;;;;18.03;47.69;101957.06;4917010;29;20400;-69
2023/05/31 07:07:14;;;;;;;6.27;3.03;;;;;;;18.23;47.27;101965.06;4918216;29;20478;-70
2023/05/31 07:09:43;;;;;;;3.97;2.23;;;;;;;18.24;47.12;101958.53;4921755;29;20897;-68
2023/05/31 07:12:13;;;;;;;6.60;3.53;;;;;;;18.36;46.65;101962.19;4923018;29;20452;-68
2023/05/31 07:14:43;;;;;;;7.23;3.27;;;;;;;18.77;45.59;101957.94;4915860;29;20420;-68
2023/05/31 07:17:13;;;;;;;8.70;4.13;;;;;;;18.97;45.24;101959.34;4916524;29;20423;-68
2023/05/31 07:19:46;;;;;;;5.83;3.00;;;;;;;18.95;45.07;101955.16;4922698;29;20495;-69
2023/05/31 07:22:19;;;;;;;5.67;2.83;;;;;;;19.04;45.11;101951.00;4916729;29;20411;-68
2023/05/31 07:24:48;;;;;;;4.00;2.53;;;;;;;19.14;44.09;101947.72;4917306;29;20424;-69
2023/05/31 07:27:17;;;;;;;13.90;2.93;;;;;;;19.36;43.70;101944.22;4917192;29;20948;-69
2023/05/31 07:29:46;;;;;;;6.90;3.97;;;;;;;19.48;43.40;101938.75;4913545;29;20813;-69
2023/05/31 07:32:16;;;;;;;5.10;2.87;;;;;;;19.50;43.17;101944.88;4913032;29;20446;-69
2023/05/31 07:34:47;;;;;;;3.83;2.50;;;;;;;19.60;43.49;101941.53;4922517;29;20858;-68
2023/05/31 07:37:33;;;;;;;5.40;2.53;;;;;;;19.50;42.51;101937.47;4915629;29;20426;-68
2023/05/31 07:40:03;;;;;;;3.60;2.33;;;;;;;19.88;42.44;101944.44;4913077;29;20415;-69
2023/05/31 07:42:32;;;;;;;4.47;3.20;;;;;;;20.25;42.30;101934.00;4915863;29;20967;-68
2023/05/31 07:45:02;;;;;;;6.67;3.10;;;;;;;20.62;41.25;101929.06;4918555;29;20959;-68
2023/05/31 07:47:32;;;;;;;8.60;3.57;;;;;;;20.98;40.59;101933.34;4917598;29;20464;-68
2023/05/31 07:50:03;;;;;;;4.50;2.63;;;;;;;20.62;39.69;101929.88;4919200;29;20480;-69
2023/05/31 07:52:34;;;;;;;3.47;2.40;;;;;;;20.44;39.88;101932.81;4916215;29;20821;-69
2023/05/31 07:55:04;;;;;;;5.90;2.80;;;;;;;20.27;40.08;101932.69;4918408;29;20807;-68
2023/05/31 07:57:35;;;;;;;3.13;2.10;;;;;;;20.50;39.98;101928.25;4917742;29;20505;-70
2023/05/31 08:00:05;;;;;;;4.90;2.30;;;;;;;20.89;39.64;101923.81;4914915;29;20441;-70
2023/05/31 08:02:40;;;;;;;10.03;3.10;;;;;;;21.12;38.90;101927.28;4918950;29;21131;-68
2023/05/31 08:05:10;;;;;;;4.20;2.37;;;;;;;21.23;38.18;101925.59;4920012;29;20560;-68
2023/05/31 08:07:41;;;;;;;3.73;2.57;;;;;;;21.07;37.01;101927.19;4918270;29;20498;-69
2023/05/31 08:10:11;;;;;;;3.10;2.00;;;;;;;21.09;37.94;101932.47;4918437;29;20483;-69
2023/05/31 08:12:41;;;;;;;6.33;3.63;;;;;;;21.02;37.67;101924.34;4915465;29;20631;-68
2023/05/31 08:15:11;;;;;;;6.80;2.20;;;;;;;21.22;38.31;101927.50;4915695;29;20966;-68
2023/05/31 08:17:41;;;;;;;6.80;2.63;;;;;;;21.35;37.44;101931.03;4922120;29;20417;-69
2023/05/31 08:20:13;;;;;;;6.20;2.27;;;;;;;21.69;37.20;101924.44;4916423;29;20420;-69
2023/05/31 08:22:45;;;;;;;5.03;2.00;;;;;;;21.79;35.94;101919.09;4920563;29;20404;-69
2023/05/31 08:25:16;;;;;;;6.43;1.87;;;;;;;21.58;34.50;101919.88;4913504;29;20505;-69
2023/05/31 08:27:46;;;;;;;6.73;2.30;;;;;;;21.39;35.95;101924.78;4917978;29;20471;-69
2023/05/31 08:30:15;;;;;;;4.07;2.17;;;;;;;21.74;35.34;101920.91;4919434;29;20921;-68
2023/05/31 08:32:45;;;;;;;2.67;2.00;;;;;;;21.78;33.86;101925.69;4911194;29;20444;-68
2023/05/31 08:35:14;;;;;;;4.53;2.00;;;;;;;21.78;32.50;101928.47;4912925;29;20482;-69
2023/05/31 08:37:45;;;;;;;2.90;1.83;;;;;;;21.88;32.78;101923.06;4915140;29;20490;-69
2023/05/31 08:40:17;;;;;;;9.10;2.60;;;;;;;22.01;33.38;101922.78;4918179;29;20408;-69
2023/05/31 08:42:52;;;;;;;4.40;1.90;;;;;;;21.53;33.65;101925.28;4916127;29;20403;-68
2023/05/31 08:45:22;;;;;;;4.20;2.37;;;;;;;21.45;33.86;101917.41;4912532;29;20427;-67
2023/05/31 08:48:01;;;;;;;4.00;2.03;;;;;;;21.47;32.72;101924.38;4919560;29;20520;-69
2023/05/31 08:50:32;;;;;;;2.57;1.50;;;;;;;21.92;32.67;101918.75;4912312;29;20854;-69
2023/05/31 08:53:03;;;;;;;5.47;2.90;;;;;;;21.65;32.72;101923.28;4912216;29;20438;-68
2023/05/31 08:55:32;;;;;;;3.50;1.77;;;;;;;21.49;31.95;101908.44;4913274;29;20454;-67
2023/05/31 08:58:02;;;;;;;4.17;2.37;;;;;;;21.67;33.50;101904.59;4914477;29;20442;-69
2023/05/31 09:00:32;;;;;;;4.93;2.67;;;;;;;21.62;32.37;101912.75;4914531;29;20469;-68
2023/05/31 09:03:02;;;;;;;4.90;2.13;;;;;;;21.72;31.58;101906.56;4912799;29;20791;-68
2023/05/31 09:05:31;;;;;;;3.67;2.03;;;;;;;22.04;33.03;101911.22;4909989;29;20468;-69
2023/05/31 09:08:02;;;;;;;6.13;2.20;;;;;;;22.61;32.75;101899.84;4913504;29;20413;-68
2023/05/31 09:10:32;;;;;;;5.07;3.90;;;;;;;22.65;31.46;101897.41;4915968;29;20524;-70
2023/05/31 09:13:01;;;;;;;3.30;1.63;;;;;;;22.43;28.92;101902.94;4912979;29;21027;-69
2023/05/31 09:15:32;;;;;;;4.47;1.80;;;;;;;22.75;30.02;101901.13;4914846;29;20469;-68
2023/05/31 09:18:15;;;;;;;2.80;1.87;;;;;;;22.89;30.18;101899.66;4914523;29;20439;-68
2023/05/31 09:20:44;;;;;;;3.70;1.77;;;;;;;22.70;30.41;101895.59;4914492;29;20448;-68
2023/05/31 09:23:19;;;;;;;2.77;2.07;;;;;;;22.39;30.96;101886.06;4909973;29;20497;-67
2023/05/31 09:25:49;;;;;;;5.13;2.30;;;;;;;22.33;31.26;101892.59;4912880;29;20475;-69
2023/05/31 09:28:19;;;;;;;3.97;2.40;;;;;;;22.05;30.61;101895.53;4912369;29;20441;-68
2023/05/31 09:31:03;;;;;;;7.80;1.70;;;;;;;21.89;31.60;101888.94;4915415;29;20473;-69
2023/05/31 09:33:42;;;;;;;2.53;1.60;;;;;;;21.71;31.78;101883.69;4909103;29;20887;-70
2023/05/31 09:36:12;;;;;;;3.37;2.00;;;;;;;21.51;32.54;101873.19;4916273;29;20465;-70
2023/05/31 09:38:43;;;;;;;3.90;1.97;;;;;;;21.67;32.82;101871.53;4915993;29;20440;-68
2023/05/31 09:41:16;;;;;;;4.03;2.90;;;;;;;22.39;32.05;101869.53;4911218;29;20442;-68
2023/05/31 09:43:47;;;;;;;2.20;1.90;;;;;;;22.55;31.88;101870.53;4909833;29;20404;-68
2023/05/31 09:46:18;;;;;;;3.47;1.97;;;;;;;22.87;29.03;101868.72;4912611;29;20589;-68
2023/05/31 09:48:57;;;;;;;3.20;1.80;;;;;;;22.88;29.27;101850.22;4908392;29;20765;-69
2023/05/31 09:51:27;;;;;;;3.13;1.40;;;;;;;22.93;29.80;101864.91;4910600;29;21025;-68
2023/05/31 09:53:58;;;;;;;2.50;1.43;;;;;;;22.19;29.15;101858.22;4912390;29;20444;-68
2023/05/31 09:56:28;;;;;;;3.30;1.67;;;;;;;22.59;29.17;101857.91;4912622;29;20504;-69
2023/05/31 09:58:58;;;;;;;1.80;1.20;;;;;;;22.86;28.41;101861.50;4911430;29;20950;-68
2023/05/31 10:01:27;;;;;;;3.87;2.37;;;;;;;23.15;28.93;101855.72;4907727;29;20472;-69
2023/05/31 10:03:59;;;;;;;10.20;1.83;;;;;;;23.49;29.71;101857.13;4917888;29;20889;-68
2023/05/31 10:06:29;;;;;;;4.70;1.60;;;;;;;23.39;29.19;101854.25;4917008;29;20983;-67
2023/05/31 10:08:59;;;;;;;3.30;2.00;;;;;;;23.05;28.51;101855.59;4912834;29;20449;-68
2023/05/31 10:11:34;;;;;;;2.80;2.13;;;;;;;23.52;28.98;101851.09;4911491;29;20473;-69
2023/05/31 10:14:08;;;;;;;3.30;1.73;;;;;;;23.82;28.71;101847.66;4911219;29;20484;-69
2023/05/31 10:16:46;;;;;;;2.50;1.50;;;;;;;23.65;28.32;101852.53;4913562;29;21004;-69
2023/05/31 10:19:21;;;;;;;2.90;1.23;;;;;;;23.46;28.30;101841.09;4912089;29;20430;-68
2023/05/31 10:21:51;;;;;;;3.17;1.27;;;;;;;23.32;27.95;101842.63;4915043;29;20438;-68
2023/05/31 10:24:26;;;;;;;5.30;1.23;;;;;;;23.61;27.69;101837.59;4911443;29;20442;-67
2023/05/31 10:27:04;;;;;;;3.20;1.80;;;;;;;24.39;28.34;101836.66;4909441;29;20564;-68
2023/05/31 10:29:37;;;;;;;1.90;1.40;;;;;;;24.32;28.36;101838.81;4910258;29;20438;-68
2023/05/31 10:32:14;;;;;;;2.40;1.43;;;;;;;24.25;28.42;101844.59;4915615;29;20476;-68
2023/05/31 10:34:44;;;;;;;4.80;2.07;;;;;;;24.33;28.72;101829.44;4914913;29;20542;-69
2023/05/31 10:37:14;;;;;;;2.50;1.40;;;;;;;23.89;28.28;101828.94;4915453;29;20442;-68
2023/05/31 10:39:50;;;;;;;2.40;1.30;;;;;;;23.66;28.48;101824.66;4915294;29;20444;-68
2023/05/31 10:42:27;;;;;;;3.33;1.37;;;;;;;23.51;27.93;101824.56;4912340;29;20469;-68
2023/05/31 10:45:06;;;;;;;1.80;1.27;;;;;;;23.39;27.61;101823.88;4911824;29;20996;-68
2023/05/31 10:47:40;;;;;;;3.13;1.33;;;;;;;23.85;27.66;101821.44;4904550;29;20975;-68
2023/05/31 10:50:17;;;;;;;8.07;7.23;;;;;;;24.49;27.55;101822.00;4901822;29;20524;-67
2023/05/31 10:52:49;;;;;;;9.00;6.07;;;;;;;25.34;26.59;101826.00;4903890;29;21514;-68
2023/05/31 10:55:22;;;;;;;2.60;2.03;;;;;;;25.91;25.95;101822.84;4903213;29;20476;-68
2023/05/31 10:57:53;;;;;;;1.90;1.00;;;;;;;25.79;26.03;101805.72;4909021;29;20434;-69
2023/05/31 11:00:23;;;;;;;3.53;1.80;;;;;;;25.47;26.01;101806.84;4907545;29;20438;-68
2023/05/31 11:02:55;;;;;;;2.90;1.60;;;;;;;24.73;26.62;101816.81;4903805;29;20430;-68
2023/05/31 11:05:26;;;;;;;1.77;1.27;;;;;;;24.42;27.43;101811.19;4905262;29;20457;-68
2023/05/31 11:07:58;;;;;;;2.07;1.30;;;;;;;24.11;26.56;101795.56;4906636;29;21164;-68
2023/05/31 11:10:32;;;;;;;2.53;1.10;;;;;;;24.10;27.33;101788.38;4906296;29;20457;-69
2023/05/31 11:13:05;;;;;;;2.00;1.10;;;;;;;23.78;27.90;101785.75;4906347;29;21019;-67
2023/05/31 11:15:41;;;;;;;1.83;1.10;;;;;;;23.98;28.24;101787.78;4905246;29;20489;-69
2023/05/31 11:18:14;;;;;;;2.10;1.23;;;;;;;24.00;28.24;101780.06;4904792;29;21051;-68
2023/05/31 11:20:43;;;;;;;2.23;1.17;;;;;;;24.66;28.46;101779.16;4904350;29;20437;-67
2023/05/31 11:23:27;;;;;;;5.10;1.50;;;;;;;24.52;27.70;101794.63;4903851;29;20449;-67
2023/05/31 11:26:11;;;;;;;2.03;0.80;;;;;;;24.66;27.64;101783.84;4905584;29;20469;-68
2023/05/31 11:28:56;;;;;;;2.40;1.30;;;;;;;24.18;27.45;101782.34;4907377;29;20430;-66
2023/05/31 11:32:01;;;;;;;1.50;1.00;;;;;;;24.34;27.44;101786.84;4907690;29;20473;-68
2023/05/31 11:34:33;;;;;;;1.73;1.00;;;;;;;24.68;27.09;101776.94;4897028;29;20441;-69
2023/05/31 11:37:04;;;;;;;1.60;0.83;;;;;;;24.83;27.46;101767.00;4909187;29;20444;-69
2023/05/31 11:39:33;;;;;;;2.00;1.40;;;;;;;25.21;26.22;101762.84;4909038;29;20437;-69
2023/05/31 11:42:07;;;;;;;2.43;1.53;;;;;;;25.28;27.29;101761.44;4907453;29;20430;-68
2023/05/31 11:44:42;;;;;;;1.60;0.90;;;;;;;24.92;27.10;101760.66;4908909;29;20445;-68
2023/05/31 11:47:17;;;;;;;2.23;1.37;;;;;;;24.66;27.81;101759.78;4908340;29;20815;-69
2023/05/31 11:49:47;;;;;;;1.20;0.70;;;;;;;24.29;28.38;101756.41;4909178;29;20509;-68